Time;durP1;ratioP1;P1;durP2;ratioP2;P2;SDS_P1;SDS_P2;PMS_P1;PMS_P2;Temp;Humidity;BMP_temperature;BMP_pressure;BME280_temperature;BME280_humidity;BME280_pressure;Samples;Min_cycle;Max_cycle;Signal;HPM_P1;HPM_P2
2022/09/28 00:00:31;;;;;;;1.53;0.50;;;7.80;99.90;7.80;98819.00;;;;5006775;28;107614;-60
2022/09/28 00:02:57;;;;;;;0.30;0.30;;;7.80;99.90;7.80;98825.00;;;;5008886;28;83543;-59
2022/09/28 00:05:25;;;;;;;0.67;0.67;;;7.90;99.90;7.90;98824.00;;;;5007464;28;84198;-59
2022/09/28 00:07:53;;;;;;;0.57;0.40;;;8.10;99.90;7.90;98817.00;;;;5008112;28;83054;-59
2022/09/28 00:10:22;;;;;;;1.10;0.67;;;8.10;99.90;7.90;98825.00;;;;5007696;28;82464;-60
2022/09/28 00:12:50;;;;;;;0.40;0.40;;;7.90;99.90;7.90;98817.00;;;;5006625;28;82461;-59
2022/09/28 00:15:16;;;;;;;0.37;0.37;;;8.00;99.90;8.00;98816.00;;;;5005648;28;82966;-60
2022/09/28 00:17:45;;;;;;;0.53;0.43;;;8.00;99.90;8.00;98815.00;;;;5009950;28;82489;-59
2022/09/28 00:20:11;;;;;;;0.40;0.40;;;8.10;99.90;8.00;98816.00;;;;5006923;28;82006;-60
2022/09/28 00:22:37;;;;;;;4.80;0.50;;;8.10;99.90;8.10;98810.00;;;;5032047;28;85437;-60
2022/09/28 00:25:05;;;;;;;0.60;0.60;;;8.10;99.90;8.10;98808.00;;;;5011967;28;112444;-60
2022/09/28 00:27:31;;;;;;;0.63;0.40;;;8.20;99.90;8.10;98809.00;;;;5008132;28;82786;-59
2022/09/28 00:29:56;;;;;;;0.70;0.63;;;8.20;99.90;8.20;98798.00;;;;5009697;28;107723;-60
2022/09/28 00:32:23;;;;;;;0.77;0.77;;;8.20;99.90;8.20;98799.00;;;;5011932;28;83234;-59
2022/09/28 00:34:50;;;;;;;0.43;0.30;;;8.20;99.90;8.20;98799.00;;;;5009737;28;84365;-60
2022/09/28 00:37:17;;;;;;;0.53;0.53;;;8.80;99.90;8.30;98797.00;;;;5007870;28;84918;-59
2022/09/28 00:39:44;;;;;;;0.67;0.60;;;8.30;99.90;8.30;98798.00;;;;5002119;28;81825;-58
2022/09/28 00:42:17;;;;;;;0.60;0.60;;;8.40;99.90;8.30;98794.00;;;;5015968;28;83474;-59
2022/09/28 00:44:56;;;;;;;0.40;0.30;;;8.40;99.90;8.30;98794.00;;;;5007963;28;82509;-59
2022/09/28 00:47:39;;;;;;;0.50;0.30;;;8.40;99.90;8.40;98786.00;;;;5008924;28;99168;-59
2022/09/28 00:50:17;;;;;;;0.43;0.43;;;8.40;99.90;8.40;98798.00;;;;5006405;28;81946;-59
2022/09/28 00:53:12;;;;;;;0.30;0.30;;;8.50;99.90;8.30;98781.00;;;;5026094;28;90722;-59
2022/09/28 00:55:50;;;;;;;0.57;0.50;;;8.40;99.90;8.40;98783.00;;;;5017056;28;82157;-59
2022/09/28 00:58:30;;;;;;;0.73;0.70;;;8.50;99.90;8.40;98791.00;;;;5011915;28;82859;-59
2022/09/28 01:00:57;;;;;;;2.07;0.67;;;8.50;99.90;8.40;98780.00;;;;5010428;28;82360;-59
2022/09/28 01:03:24;;;;;;;0.63;0.63;;;8.50;99.90;8.40;98781.00;;;;5028839;28;82263;-59
2022/09/28 01:05:51;;;;;;;0.50;0.30;;;8.50;99.90;8.40;98786.00;;;;5010201;28;104881;-59
2022/09/28 01:08:20;;;;;;;0.43;0.40;;;8.50;99.90;8.50;98781.00;;;;5023334;28;98465;-59
2022/09/28 01:10:47;;;;;;;0.93;0.43;;;8.50;99.90;8.50;98777.00;;;;5023272;28;82535;-60
2022/09/28 01:13:14;;;;;;;0.47;0.30;;;8.60;99.90;8.50;98769.00;;;;5004439;28;103869;-59
2022/09/28 01:15:58;;;;;;;0.30;0.30;;;8.60;99.90;8.50;98768.00;;;;5010790;28;111320;-57
2022/09/28 01:18:56;;;;;;;1.17;0.70;;;8.60;99.90;8.50;98773.00;;;;5028045;28;100492;-59
2022/09/28 01:21:23;;;;;;;0.30;0.23;;;8.60;99.90;8.60;98764.00;;;;5011449;28;82398;-60
2022/09/28 01:23:54;;;;;;;1.57;0.67;;;8.60;99.90;8.60;98767.00;;;;5009023;28;84668;-59
2022/09/28 01:26:41;;;;;;;0.43;0.43;;;8.70;99.90;8.60;98768.00;;;;5006143;28;86932;-59
2022/09/28 01:29:32;;;;;;;0.87;0.53;;;8.60;99.90;8.60;98763.00;;;;5012370;28;82306;-58
2022/09/28 01:32:22;;;;;;;0.30;0.30;;;8.70;99.90;8.60;98760.00;;;;5019706;28;81884;-60
2022/09/28 01:35:23;;;;;;;0.30;0.30;;;8.70;99.90;8.60;98762.00;;;;5006684;28;106440;-59
2022/09/28 01:38:17;;;;;;;0.40;0.40;;;8.70;99.90;8.60;98757.00;;;;4983847;28;83325;-59
2022/09/28 01:40:45;;;;;;;2.73;0.43;;;8.70;99.90;8.70;98750.00;;;;5012623;28;82518;-59
2022/09/28 01:43:19;;;;;;;0.50;0.50;;;8.70;99.90;8.70;98742.00;;;;5011093;28;108010;-60
2022/09/28 01:45:55;;;;;;;0.80;0.50;;;8.70;99.90;8.70;98748.00;;;;5011364;28;93560;-60
2022/09/28 01:49:01;;;;;;;0.30;0.30;;;8.80;99.90;8.70;98737.00;;;;5026329;28;83333;-59
2022/09/28 01:51:43;;;;;;;0.30;0.30;;;8.80;99.90;8.80;98744.00;;;;5023519;27;83347;-59
2022/09/28 01:54:20;;;;;;;0.40;0.40;;;8.80;99.90;8.80;98743.00;;;;5012120;28;101579;-58
2022/09/28 01:56:51;;;;;;;0.37;0.20;;;8.80;99.90;8.80;98732.00;;;;5012077;28;106290;-59
2022/09/28 01:59:28;;;;;;;0.20;0.20;;;8.90;99.90;8.80;98734.00;;;;5029103;28;87404;-60
2022/09/28 02:02:13;;;;;;;0.20;0.20;;;8.90;99.90;8.90;98735.00;;;;5025765;28;95510;-59
2022/09/28 02:04:50;;;;;;;0.30;0.30;;;8.90;99.90;8.90;98734.00;;;;5007777;28;100903;-60
2022/09/28 02:07:31;;;;;;;0.73;0.50;;;9.00;99.90;8.90;98734.00;;;;5029994;28;86739;-60
2022/09/28 02:10:13;;;;;;;0.20;0.20;;;9.00;99.90;8.90;98733.00;;;;5024818;28;104147;-59
2022/09/28 02:12:49;;;;;;;0.73;0.20;;;9.00;99.90;8.90;98730.00;;;;5007392;28;82402;-59
2022/09/28 02:15:24;;;;;;;0.30;0.30;;;8.90;99.90;8.80;98729.00;;;;5017009;28;101522;-60
2022/09/28 02:17:50;;;;;;;0.17;0.17;;;8.90;99.90;8.80;98727.00;;;;5010685;28;83602;-60
2022/09/28 02:20:16;;;;;;;0.20;0.10;;;8.90;99.90;8.80;98732.00;;;;5011330;28;112952;-59
2022/09/28 02:22:50;;;;;;;0.40;0.37;;;8.80;99.90;8.70;98732.00;;;;5013094;28;82363;-57
2022/09/28 02:25:39;;;;;;;0.20;0.20;;;8.80;99.90;8.60;98730.00;;;;5012860;28;82493;-60
2022/09/28 02:28:09;;;;;;;0.50;0.40;;;8.70;99.90;8.50;98725.00;;;;5001040;28;82429;-60
2022/09/28 02:30:37;;;;;;;0.30;0.30;;;8.70;99.90;8.50;98720.00;;;;5014735;28;83320;-60
2022/09/28 02:33:37;;;;;;;0.23;0.20;;;8.60;99.90;8.40;98715.00;;;;5000317;28;82376;-59
2022/09/28 02:36:04;;;;;;;0.30;0.20;;;8.60;99.90;8.40;98720.00;;;;5010841;28;81507;-59
2022/09/28 02:38:30;;;;;;;0.53;0.53;;;8.50;99.90;8.30;98709.00;;;;5008774;28;94187;-60
2022/09/28 02:41:10;;;;;;;0.20;0.20;;;8.50;99.90;8.20;98715.00;;;;4999833;28;82728;-60
2022/09/28 02:44:07;;;;;;;0.60;0.60;;;8.40;99.90;8.10;98705.00;;;;5003786;28;83148;-60
2022/09/28 02:47:02;;;;;;;0.40;0.40;;;8.30;99.90;8.00;98712.00;;;;5005698;28;82321;-60
2022/09/28 02:49:38;;;;;;;0.20;0.20;;;8.20;99.90;8.00;98713.00;;;;5038626;27;105217;-59
2022/09/28 02:52:42;;;;;;;0.20;0.20;;;8.10;99.90;7.90;98710.00;;;;5005658;28;82078;-59
2022/09/28 02:55:19;;;;;;;0.63;0.63;;;8.00;99.90;7.80;98705.00;;;;5027152;28;82799;-59
2022/09/28 02:58:33;;;;;;;0.23;0.23;;;8.00;99.90;7.70;98706.00;;;;5010336;28;81832;-59
2022/09/28 03:01:28;;;;;;;0.13;0.13;;;7.90;99.90;7.60;98696.00;;;;5036125;27;95882;-59
2022/09/28 03:04:11;;;;;;;0.40;0.40;;;7.80;99.90;7.50;98699.00;;;;5001404;28;89432;-59
2022/09/28 03:06:43;;;;;;;4.00;0.37;;;7.70;99.90;7.50;98698.00;;;;5012588;28;98957;-60
2022/09/28 03:09:31;;;;;;;0.70;0.37;;;7.60;99.90;7.40;98699.00;;;;5005685;28;86590;-59
2022/09/28 03:12:07;;;;;;;0.33;0.30;;;7.60;99.90;7.40;98696.00;;;;5007711;28;84418;-60
2022/09/28 03:14:33;;;;;;;0.57;0.40;;;7.50;99.90;7.40;98692.00;;;;5007510;28;84217;-60
2022/09/28 03:16:59;;;;;;;3.13;0.57;;;7.50;99.90;7.30;98688.00;;;;5007858;28;109012;-59
2022/09/28 03:19:31;;;;;;;0.60;0.20;;;7.40;99.90;7.30;98693.00;;;;5000367;28;81843;-59
2022/09/28 03:21:57;;;;;;;0.30;0.30;;;7.40;99.90;7.20;98696.00;;;;5001109;28;83442;-60
2022/09/28 03:24:23;;;;;;;0.43;0.43;;;7.30;99.90;7.20;98693.00;;;;5003893;28;82539;-60
2022/09/28 03:26:49;;;;;;;0.30;0.30;;;7.60;99.90;7.10;98684.00;;;;5003756;28;109950;-60
2022/09/28 03:29:14;;;;;;;2.37;0.60;;;7.30;99.90;7.10;98682.00;;;;5008021;28;107106;-59
2022/09/28 03:31:40;;;;;;;0.30;0.30;;;7.20;99.90;7.00;98673.00;;;;5008798;28;111534;-59
2022/09/28 03:34:06;;;;;;;0.83;0.73;;;7.40;99.90;7.00;98681.00;;;;5009586;28;112222;-60
2022/09/28 03:36:31;;;;;;;0.30;0.30;;;7.10;99.90;7.00;98671.00;;;;5012169;28;111472;-60
2022/09/28 03:38:58;;;;;;;0.33;0.33;;;7.10;99.90;7.00;98669.00;;;;5000735;28;106455;-60
2022/09/28 03:41:24;;;;;;;0.30;0.30;;;7.10;99.90;6.90;98659.00;;;;4999973;28;83440;-60
2022/09/28 03:43:49;;;;;;;0.40;0.30;;;7.00;99.90;6.80;98662.00;;;;5004395;28;82546;-60
2022/09/28 03:46:15;;;;;;;0.40;0.40;;;7.60;99.90;6.80;98668.00;;;;5004536;28;110687;-59
2022/09/28 03:48:41;;;;;;;0.60;0.60;;;7.40;99.90;6.70;98658.00;;;;5004829;28;82309;-59
2022/09/28 03:51:08;;;;;;;0.97;0.70;;;6.90;99.90;6.70;98668.00;;;;5009689;28;110022;-60
2022/09/28 03:53:35;;;;;;;0.97;0.80;;;6.80;99.90;6.60;98667.00;;;;5010369;28;83302;-60
2022/09/28 03:56:07;;;;;;;0.53;0.53;;;6.80;99.90;6.60;98665.00;;;;5012903;28;82304;-60
2022/09/28 03:58:33;;;;;;;0.60;0.40;;;6.70;99.90;6.50;98661.00;;;;5000576;28;98951;-59
2022/09/28 04:01:05;;;;;;;0.50;0.50;;;6.70;99.90;6.50;98658.00;;;;4998992;28;113463;-59
2022/09/28 04:03:31;;;;;;;0.40;0.40;;;7.00;99.90;6.50;98660.00;;;;5003539;28;83754;-59
2022/09/28 04:05:57;;;;;;;0.70;0.50;;;6.50;99.90;6.40;98656.00;;;;5004493;28;92800;-59
2022/09/28 04:08:23;;;;;;;1.07;0.57;;;6.60;99.90;6.40;98657.00;;;;5006737;28;94178;-59
2022/09/28 04:10:48;;;;;;;0.63;0.50;;;6.50;99.90;6.40;98656.00;;;;5009756;28;83391;-59
2022/09/28 04:13:15;;;;;;;0.33;0.30;;;6.50;99.90;6.30;98650.00;;;;5007005;28;112559;-59
2022/09/28 04:15:41;;;;;;;0.50;0.40;;;6.50;99.90;6.30;98656.00;;;;5002774;28;82964;-59
2022/09/28 04:18:12;;;;;;;0.70;0.50;;;6.50;99.90;6.20;98656.00;;;;4998896;28;103720;-60
2022/09/28 04:20:40;;;;;;;0.73;0.53;;;6.40;99.90;6.20;98657.00;;;;5004282;28;83387;-58
2022/09/28 04:23:06;;;;;;;0.50;0.50;;;6.40;99.90;6.20;98658.00;;;;5002450;28;83440;-62
2022/09/28 04:25:31;;;;;;;0.60;0.53;;;6.30;99.90;6.20;98656.00;;;;5003282;28;107537;-59
2022/09/28 04:30:41;;;;;;;0.50;0.50;;;6.40;99.90;6.30;98663.00;;;;5007432;28;82825;-59
2022/09/28 04:33:07;;;;;;;0.70;0.70;;;6.40;99.90;6.30;98660.00;;;;5011648;28;105503;-60
2022/09/28 04:35:32;;;;;;;0.83;0.60;;;6.40;99.90;6.40;98662.00;;;;5009144;28;110540;-59
2022/09/28 04:37:58;;;;;;;2.00;0.80;;;6.50;99.90;6.40;98663.00;;;;5004281;28;109394;-59
2022/09/28 04:40:24;;;;;;;0.47;0.47;;;6.50;99.90;6.50;98667.00;;;;5001309;28;112074;-58
2022/09/28 04:42:56;;;;;;;0.50;0.50;;;6.60;99.90;6.60;98656.00;;;;5002292;28;111318;-58
2022/09/28 04:45:24;;;;;;;0.60;0.50;;;6.70;99.90;6.60;98656.00;;;;5004966;28;90711;-59
2022/09/28 04:47:50;;;;;;;0.80;0.80;;;6.70;99.90;6.70;98659.00;;;;5007978;28;82421;-59
2022/09/28 04:50:16;;;;;;;0.53;0.53;;;7.30;99.90;6.80;98645.00;;;;5009133;28;109799;-59
2022/09/28 04:52:42;;;;;;;0.97;0.60;;;6.80;99.90;6.80;98656.00;;;;5010354;28;112559;-60
2022/09/28 04:55:12;;;;;;;0.53;0.50;;;6.90;99.90;6.80;98641.00;;;;5008859;28;109195;-59
2022/09/28 04:57:38;;;;;;;0.57;0.47;;;6.90;99.90;6.90;98639.00;;;;5006996;28;82021;-59
2022/09/28 05:00:04;;;;;;;0.63;0.47;;;7.10;99.90;6.90;98646.00;;;;5004040;28;104006;-59
2022/09/28 05:02:30;;;;;;;0.63;0.50;;;7.00;99.90;6.90;98643.00;;;;5007556;28;86315;-59
2022/09/28 05:04:57;;;;;;;0.50;0.50;;;7.50;99.90;6.90;98641.00;;;;5008308;28;109620;-59
2022/09/28 05:07:24;;;;;;;0.57;0.43;;;7.00;99.90;6.90;98625.00;;;;5011105;28;81395;-59
2022/09/28 05:09:50;;;;;;;1.33;0.73;;;7.00;99.90;6.90;98625.00;;;;5013949;28;82836;-58
2022/09/28 05:12:15;;;;;;;0.70;0.50;;;7.50;99.90;6.90;98621.00;;;;5013805;28;112679;-59
2022/09/28 05:14:41;;;;;;;0.43;0.40;;;7.00;99.90;6.90;98636.00;;;;5004832;28;109312;-59
2022/09/28 05:17:07;;;;;;;0.60;0.60;;;7.20;99.90;6.90;98618.00;;;;5003517;28;82817;-59
2022/09/28 05:19:33;;;;;;;0.30;0.30;;;7.00;99.90;6.90;98601.00;;;;5005931;28;111727;-59
2022/09/28 05:22:03;;;;;;;0.30;0.30;;;7.00;99.90;6.90;98591.00;;;;5005018;28;83703;-59
2022/09/28 05:24:30;;;;;;;0.57;0.23;;;7.00;99.90;6.90;98590.00;;;;5008544;28;81952;-59
2022/09/28 05:26:56;;;;;;;0.50;0.50;;;7.00;99.90;6.90;98592.00;;;;5010958;28;82312;-59
2022/09/28 05:29:22;;;;;;;0.83;0.60;;;7.40;99.90;6.90;98587.00;;;;5012164;28;112340;-58
2022/09/28 05:31:48;;;;;;;0.87;0.57;;;7.00;99.90;7.00;98583.00;;;;5015025;28;82595;-59
2022/09/28 05:34:13;;;;;;;0.57;0.47;;;7.10;99.90;7.10;98590.00;;;;5010142;28;84167;-57
2022/09/28 05:36:41;;;;;;;0.30;0.30;;;7.10;99.90;7.20;98585.00;;;;5013271;28;108002;-59
2022/09/28 05:39:08;;;;;;;0.67;0.40;;;7.20;99.90;7.30;98585.00;;;;5004683;28;84459;-59
2022/09/28 05:41:34;;;;;;;1.67;0.40;;;7.40;99.90;7.40;98582.00;;;;5006170;28;83686;-59
2022/09/28 05:44:00;;;;;;;0.63;0.63;;;7.90;99.90;7.50;98588.00;;;;5008109;28;93270;-60
2022/09/28 05:46:25;;;;;;;0.57;0.43;;;7.50;99.90;7.50;98586.00;;;;5008319;28;95927;-59
2022/09/28 05:48:53;;;;;;;0.60;0.60;;;7.60;99.90;7.50;98591.00;;;;5012008;28;84731;-60
2022/09/28 05:51:19;;;;;;;1.03;0.40;;;7.60;99.90;7.60;98595.00;;;;5012582;28;83385;-59
2022/09/28 05:53:44;;;;;;;0.73;0.40;;;7.60;99.90;7.60;98596.00;;;;5006544;28;83113;-57
2022/09/28 05:56:10;;;;;;;0.70;0.60;;;7.60;99.90;7.60;98601.00;;;;5001231;28;109077;-59
2022/09/28 05:58:36;;;;;;;2.37;0.73;;;7.70;99.90;7.60;98584.00;;;;5001171;28;111539;-59
2022/09/28 06:01:01;;;;;;;0.80;0.60;;;7.90;99.90;7.70;98591.00;;;;5004046;28;112885;-59
2022/09/28 06:03:27;;;;;;;2.73;1.10;;;7.70;99.90;7.80;98581.00;;;;5003605;28;82850;-60
2022/09/28 06:05:53;;;;;;;1.10;0.30;;;7.80;99.90;7.80;98590.00;;;;5006652;28;107545;-59
2022/09/28 06:08:19;;;;;;;0.60;0.50;;;7.90;99.90;7.90;98583.00;;;;5010047;28;92566;-60
2022/09/28 06:10:45;;;;;;;0.57;0.37;;;8.00;99.90;8.00;98590.00;;;;5006870;28;112015;-60
2022/09/28 06:13:11;;;;;;;0.50;0.47;;;8.00;99.90;8.00;98588.00;;;;5016944;28;108501;-58
2022/09/28 06:15:37;;;;;;;0.33;0.33;;;8.10;99.90;8.10;98587.00;;;;5010936;28;92016;-59
2022/09/28 06:18:15;;;;;;;0.40;0.40;;;8.10;99.90;8.10;98571.00;;;;5001099;28;83642;-59
2022/09/28 06:20:41;;;;;;;0.40;0.40;;;8.20;99.90;8.20;98574.00;;;;5008693;28;83539;-60
2022/09/28 06:23:12;;;;;;;0.90;0.50;;;8.20;99.90;8.20;98577.00;;;;5003803;28;82390;-58
2022/09/28 06:25:38;;;;;;;0.30;0.30;;;8.30;99.90;8.30;98566.00;;;;5004371;28;82346;-60
2022/09/28 06:28:11;;;;;;;0.63;0.50;;;8.30;99.90;8.30;98559.00;;;;5009842;28;83955;-59
2022/09/28 06:30:37;;;;;;;1.80;0.93;;;8.30;99.90;8.40;98557.00;;;;5009849;28;84291;-59
2022/09/28 06:33:05;;;;;;;0.40;0.40;;;8.40;99.90;8.40;98552.00;;;;5003049;28;82299;-57
2022/09/28 06:35:31;;;;;;;0.53;0.53;;;8.50;99.90;8.50;98562.00;;;;5007741;28;82403;-60
2022/09/28 06:37:58;;;;;;;0.50;0.50;;;8.50;99.90;8.50;98564.00;;;;5006754;28;111775;-60
2022/09/28 06:40:25;;;;;;;0.53;0.53;;;8.60;99.90;8.60;98560.00;;;;5003392;28;82815;-57
2022/09/28 06:42:58;;;;;;;1.87;1.13;;;8.60;99.90;8.70;98546.00;;;;5005478;28;82493;-59
2022/09/28 06:45:25;;;;;;;2.00;1.03;;;8.70;99.90;8.70;98552.00;;;;5005623;28;81723;-60
2022/09/28 06:47:59;;;;;;;1.07;0.93;;;8.70;99.90;8.80;98546.00;;;;5007908;28;83385;-60
2022/09/28 06:50:28;;;;;;;0.60;0.60;;;8.80;99.90;8.80;98546.00;;;;5007250;28;99804;-60
2022/09/28 06:52:55;;;;;;;0.77;0.77;;;8.80;99.90;8.80;98540.00;;;;5005065;28;83134;-60
2022/09/28 06:55:21;;;;;;;1.27;0.70;;;8.90;99.90;8.90;98540.00;;;;5003387;28;82384;-60
2022/09/28 06:58:03;;;;;;;0.67;0.60;;;8.90;99.90;9.00;98550.00;;;;5001825;28;113037;-60
2022/09/28 07:00:35;;;;;;;1.27;0.67;;;9.00;99.90;9.00;98555.00;;;;5003527;28;83871;-60
2022/09/28 07:03:14;;;;;;;0.73;0.57;;;9.10;99.90;9.10;98548.00;;;;5005055;28;81881;-59
2022/09/28 07:05:44;;;;;;;0.80;0.80;;;9.10;99.90;9.20;98543.00;;;;5009335;28;82195;-59
2022/09/28 07:08:11;;;;;;;2.83;1.30;;;9.20;99.90;9.20;98542.00;;;;5006432;28;82270;-58
2022/09/28 07:10:45;;;;;;;1.27;1.00;;;9.20;99.90;9.30;98546.00;;;;5006269;28;89991;-59
2022/09/28 07:13:12;;;;;;;2.13;1.10;;;9.30;99.90;9.40;98549.00;;;;5004114;28;82389;-59
2022/09/28 07:15:39;;;;;;;0.90;0.73;;;9.40;99.90;9.50;98548.00;;;;5001780;28;85246;-59
2022/09/28 07:18:06;;;;;;;2.70;1.77;;;9.50;99.90;9.50;98538.00;;;;5003293;28;84670;-59
2022/09/28 07:20:34;;;;;;;2.20;2.00;;;9.50;99.90;9.60;98549.00;;;;5000398;28;84183;-56
2022/09/28 07:23:03;;;;;;;2.70;2.10;;;9.60;99.90;9.70;98546.00;;;;5003732;28;82257;-59
2022/09/28 07:25:30;;;;;;;2.97;2.27;;;9.60;99.90;9.70;98547.00;;;;5005552;28;82224;-59
2022/09/28 07:27:58;;;;;;;2.90;2.40;;;9.70;99.90;9.80;98549.00;;;;5011640;28;82281;-59
2022/09/28 07:30:26;;;;;;;2.67;2.23;;;9.80;99.90;9.80;98552.00;;;;4998912;28;82688;-59
2022/09/28 07:32:53;;;;;;;3.93;2.20;;;9.80;99.90;9.90;98551.00;;;;5005006;28;82488;-60
2022/09/28 07:35:18;;;;;;;4.60;2.33;;;9.90;99.90;9.90;98549.00;;;;5002635;28;82001;-59
2022/09/28 07:37:45;;;;;;;2.53;1.97;;;9.90;99.90;9.90;98549.00;;;;5000053;28;112495;-59
2022/09/28 07:42:55;;;;;;;3.23;2.23;;;10.00;99.90;10.00;98550.00;;;;4998316;28;83404;-59
2022/09/28 07:45:24;;;;;;;3.33;1.80;;;10.00;99.90;10.00;98561.00;;;;5003288;28;108255;-59
2022/09/28 07:47:54;;;;;;;5.40;3.57;;;10.00;99.90;10.00;98562.00;;;;5004749;28;82463;-60
2022/09/28 07:50:20;;;;;;;15.17;8.50;;;10.00;99.90;10.10;98566.00;;;;5006661;28;83326;-60
2022/09/28 07:52:46;;;;;;;6.03;3.50;;;10.10;99.90;10.10;98569.00;;;;5002010;28;82437;-60
2022/09/28 07:55:12;;;;;;;6.90;3.73;;;10.10;99.90;10.10;98561.00;;;;5003170;28;108374;-58
2022/09/28 07:57:38;;;;;;;5.20;3.27;;;10.10;99.90;10.20;98567.00;;;;5000152;28;111393;-59
2022/09/28 08:00:07;;;;;;;3.17;2.43;;;10.10;99.90;10.20;98567.00;;;;5005041;28;83159;-60
2022/09/28 08:02:34;;;;;;;3.17;2.43;;;10.20;99.90;10.20;98562.00;;;;5007029;28;82412;-60
2022/09/28 08:05:01;;;;;;;4.23;2.70;;;10.20;99.90;10.20;98552.00;;;;5006530;28;82592;-59
2022/09/28 08:07:27;;;;;;;3.53;2.80;;;10.20;99.90;10.20;98559.00;;;;5002318;28;84710;-59
2022/09/28 08:09:52;;;;;;;3.30;2.67;;;10.20;99.90;10.20;98562.00;;;;5005103;28;82891;-61
2022/09/28 08:12:20;;;;;;;3.77;3.37;;;10.20;99.90;10.20;98561.00;;;;5000515;28;109297;-60
2022/09/28 08:14:46;;;;;;;3.63;2.50;;;10.20;99.90;10.30;98552.00;;;;5002909;28;82459;-60
2022/09/28 08:17:12;;;;;;;3.57;2.63;;;10.30;99.90;10.30;98550.00;;;;5003897;28;82887;-60
2022/09/28 08:22:22;;;;;;;4.23;2.37;;;10.30;99.90;10.40;98569.00;;;;5001697;28;82041;-59
2022/09/28 08:24:48;;;;;;;5.00;2.77;;;10.40;99.90;10.50;98563.00;;;;5004828;28;107979;-60
2022/09/28 08:27:15;;;;;;;6.27;3.17;;;10.40;99.90;10.50;98575.00;;;;5003957;28;111717;-60
2022/09/28 08:29:41;;;;;;;5.87;3.97;;;10.50;99.90;10.60;98576.00;;;;5002563;28;82390;-59
2022/09/28 08:32:09;;;;;;;5.90;3.30;;;10.60;99.90;10.60;98580.00;;;;5003461;28;83460;-60
2022/09/28 08:34:40;;;;;;;6.73;5.30;;;10.60;99.90;10.60;98567.00;;;;5003440;28;82466;-60
2022/09/28 08:37:11;;;;;;;4.93;2.80;;;10.60;99.90;10.60;98562.00;;;;5008828;28;82398;-61
2022/09/28 08:39:37;;;;;;;6.07;3.07;;;10.60;99.90;10.60;98564.00;;;;5009029;28;82688;-61
2022/09/28 08:42:28;;;;;;;13.87;6.57;;;10.60;99.90;10.60;98560.00;;;;5003996;28;101675;-61
2022/09/28 08:44:59;;;;;;;9.20;6.37;;;10.60;99.90;10.60;98558.00;;;;5011076;28;98527;-60
2022/09/28 08:51:21;;;;;;;8.93;5.60;;;10.60;99.90;10.60;98559.00;;;;4993148;28;81743;-61
2022/09/28 08:54:02;;;;;;;4.33;3.63;;;10.60;99.90;10.60;98561.00;;;;5007759;28;82174;-61
2022/09/28 08:56:48;;;;;;;7.30;4.83;;;10.60;99.90;10.60;98569.00;;;;5006183;28;82339;-62
2022/09/28 08:59:22;;;;;;;6.33;4.33;;;10.60;99.90;10.50;98572.00;;;;5023604;27;84382;-61
2022/09/28 09:01:54;;;;;;;4.10;2.90;;;10.50;99.90;10.50;98575.00;;;;5029667;27;83826;-61
2022/09/28 09:04:20;;;;;;;4.53;4.07;;;10.60;99.90;10.50;98561.00;;;;5001520;28;103934;-61
2022/09/28 09:07:34;;;;;;;5.03;4.20;;;10.50;99.90;10.40;98564.00;;;;5007846;28;109161;-61
2022/09/28 09:10:43;;;;;;;9.87;3.20;;;10.50;99.90;10.30;98561.00;;;;4999156;28;82944;-61
2022/09/28 09:13:44;;;;;;;2.37;2.00;;;10.40;99.90;10.30;98563.00;;;;5007813;28;83169;-61
2022/09/28 09:16:41;;;;;;;3.37;2.83;;;10.40;99.90;10.20;98564.00;;;;5008111;28;82330;-63
2022/09/28 09:19:41;;;;;;;4.67;3.13;;;10.30;99.90;10.10;98569.00;;;;5007588;28;97115;-63
2022/09/28 09:22:40;;;;;;;2.00;1.83;;;10.20;99.90;10.00;98561.00;;;;5008240;28;106328;-63
2022/09/28 09:25:18;;;;;;;1.90;1.63;;;10.20;99.90;9.90;98569.00;;;;5008445;28;82735;-64
2022/09/28 09:28:11;;;;;;;5.60;3.63;;;10.00;99.90;9.80;98571.00;;;;5004360;28;83373;-64
2022/09/28 09:31:12;;;;;;;10.40;7.10;;;9.90;99.90;9.70;98571.00;;;;5004920;28;82508;-65
2022/09/28 09:34:31;;;;;;;11.87;8.50;;;9.90;99.90;9.70;98574.00;;;;5007275;28;83511;-66
2022/09/28 09:37:28;;;;;;;3.97;3.47;;;9.80;99.90;9.70;98570.00;;;;5011890;28;94601;-65
2022/09/28 09:40:26;;;;;;;3.60;3.10;;;9.80;99.90;9.70;98584.00;;;;4998480;28;83284;-66
2022/09/28 09:43:29;;;;;;;2.83;2.57;;;9.80;99.90;9.70;98587.00;;;;5007282;28;82378;-67
2022/09/28 09:46:17;;;;;;;4.30;3.43;;;9.80;99.90;9.70;98579.00;;;;5007773;28;83806;-67
2022/09/28 09:49:09;;;;;;;3.67;2.77;;;9.70;99.90;9.70;98575.00;;;;5007342;28;106801;-68
2022/09/28 09:52:00;;;;;;;3.13;2.13;;;10.20;99.90;9.70;98568.00;;;;5023438;27;103784;-67
2022/09/28 09:54:51;;;;;;;3.73;2.73;;;9.80;99.90;9.70;98560.00;;;;5005362;28;90411;-68
2022/09/28 09:57:49;;;;;;;2.73;2.30;;;9.80;99.90;9.80;98558.00;;;;5011782;28;83703;-67
2022/09/28 10:00:16;;;;;;;2.73;1.80;;;9.80;99.90;9.90;98564.00;;;;5008887;28;84155;-66
2022/09/28 10:02:46;;;;;;;3.33;2.77;;;9.90;99.90;9.90;98568.00;;;;5021970;27;101733;-66
2022/09/28 10:05:11;;;;;;;4.20;2.47;;;9.90;99.90;9.90;98573.00;;;;5022046;27;102020;-66
2022/09/28 10:08:02;;;;;;;3.37;2.60;;;9.90;99.90;10.00;98566.00;;;;5007813;28;110141;-66
2022/09/28 10:10:36;;;;;;;2.87;2.30;;;10.00;99.90;10.00;98573.00;;;;5008320;28;83609;-66
2022/09/28 10:13:02;;;;;;;2.27;1.93;;;10.00;99.90;10.10;98567.00;;;;5004563;28;104781;-66
2022/09/28 10:15:31;;;;;;;2.53;2.10;;;10.10;99.90;10.20;98571.00;;;;5002606;28;108836;-66
2022/09/28 10:18:05;;;;;;;2.07;1.83;;;10.20;99.90;10.30;98569.00;;;;5008487;28;90031;-66
2022/09/28 10:20:37;;;;;;;6.20;2.33;;;10.30;99.90;10.40;98563.00;;;;5009802;28;83324;-66
2022/09/28 10:23:05;;;;;;;3.50;1.83;;;10.30;99.90;10.40;98566.00;;;;5023539;27;82941;-67
2022/09/28 10:25:35;;;;;;;3.97;2.50;;;10.40;99.90;10.30;98562.00;;;;5023664;27;82650;-68
2022/09/28 10:28:05;;;;;;;2.30;1.80;;;10.30;99.90;10.20;98571.00;;;;5003184;28;104196;-66
2022/09/28 10:30:40;;;;;;;4.30;2.77;;;10.30;99.90;10.20;98567.00;;;;5007629;28;83225;-67
2022/09/28 10:33:31;;;;;;;7.80;6.33;;;10.20;99.90;10.10;98569.00;;;;5013342;28;82327;-68
2022/09/28 10:36:03;;;;;;;4.47;4.07;;;10.20;99.90;10.10;98567.00;;;;4999904;28;82287;-68
2022/09/28 10:38:32;;;;;;;3.23;2.93;;;10.20;99.90;10.00;98580.00;;;;4998781;28;84613;-68
2022/09/28 10:41:01;;;;;;;2.27;2.07;;;10.10;99.90;10.00;98569.00;;;;5010405;28;113199;-69
2022/09/28 10:43:37;;;;;;;1.97;1.70;;;10.00;99.90;9.90;98575.00;;;;5023228;27;82103;-69
2022/09/28 10:46:13;;;;;;;3.10;2.00;;;10.00;99.90;9.90;98585.00;;;;5007220;28;95700;-69
2022/09/28 10:48:49;;;;;;;1.93;1.33;;;10.00;99.90;9.80;98567.00;;;;5000474;28;83470;-69
2022/09/28 10:51:16;;;;;;;0.70;0.70;;;9.90;99.90;9.70;98566.00;;;;5008658;28;84206;-70
2022/09/28 10:53:57;;;;;;;2.90;2.40;;;9.70;99.90;9.60;98566.00;;;;5010634;28;82639;-70
2022/09/28 10:56:27;;;;;;;2.23;1.90;;;9.70;99.90;9.60;98571.00;;;;5007916;28;82704;-69
2022/09/28 10:58:53;;;;;;;3.80;1.20;;;9.60;99.90;9.50;98574.00;;;;5004800;28;98600;-71
2022/09/28 11:01:28;;;;;;;1.53;1.43;;;9.60;99.90;9.40;98557.00;;;;5009066;28;111043;-70
2022/09/28 11:04:04;;;;;;;2.00;1.07;;;9.50;99.90;9.50;98569.00;;;;5000902;28;82804;-69
2022/09/28 11:06:40;;;;;;;0.90;0.87;;;9.50;99.90;9.40;98560.00;;;;5034647;27;82021;-69
2022/09/28 11:09:28;;;;;;;2.07;1.50;;;9.50;99.90;9.40;98557.00;;;;5008462;28;83682;-69
2022/09/28 11:11:56;;;;;;;1.87;0.93;;;9.50;99.90;9.40;98565.00;;;;5029718;27;83271;-68
2022/09/28 11:14:34;;;;;;;1.37;1.27;;;9.40;99.90;9.30;98550.00;;;;5005753;28;103504;-70
2022/09/28 11:17:29;;;;;;;2.50;2.03;;;9.40;99.90;9.30;98554.00;;;;5029241;27;82448;-70
2022/09/28 11:20:19;;;;;;;17.40;8.37;;;9.40;99.90;9.30;98551.00;;;;5007797;28;83706;-70
2022/09/28 11:22:46;;;;;;;18.93;10.23;;;9.30;99.90;9.30;98537.00;;;;5003721;28;94914;-69
2022/09/28 11:25:17;;;;;;;20.50;11.77;;;9.40;99.90;9.30;98555.00;;;;5004402;28;83134;-71
2022/09/28 11:27:52;;;;;;;14.23;7.90;;;9.30;99.90;9.30;98546.00;;;;5003007;28;108864;-71
2022/09/28 11:30:28;;;;;;;5.60;3.10;;;9.30;99.90;9.30;98554.00;;;;5009292;28;112197;-71
2022/09/28 11:33:05;;;;;;;2.93;2.63;;;9.40;99.90;9.30;98549.00;;;;5020126;27;83153;-69
2022/09/28 11:35:44;;;;;;;1.87;1.17;;;9.30;99.90;9.30;98548.00;;;;5003051;28;103626;-69
2022/09/28 11:38:34;;;;;;;2.67;2.33;;;9.40;99.90;9.30;98544.00;;;;5028873;27;90831;-69
2022/09/28 11:41:47;;;;;;;1.27;1.17;;;9.40;99.90;9.30;98552.00;;;;5010739;28;84003;-70
2022/09/28 11:44:37;;;;;;;1.27;1.00;;;9.40;99.90;9.40;98552.00;;;;5000001;28;83414;-69